createdAt,value
2019-03-24T00:02:02.826Z,64.58
2019-03-24T00:04:35.063Z,63.02
2019-03-24T00:07:07.297Z,61.77
2019-03-24T00:09:39.542Z,66.15
2019-03-24T00:12:11.762Z,58.83
2019-03-24T00:14:44.080Z,61.60
2019-03-24T00:17:16.307Z,67.27
2019-03-24T00:19:48.551Z,59.20
2019-03-24T00:22:20.788Z,58.33
2019-03-24T00:24:53.096Z,66.57
2019-03-24T00:27:25.337Z,64.22
2019-03-24T00:29:57.584Z,66.30
2019-03-24T00:32:29.848Z,61.02
2019-03-24T00:35:02.096Z,56.30
2019-03-24T00:37:34.350Z,64.10
2019-03-24T00:40:06.774Z,62.13
2019-03-24T00:42:39.453Z,67.40
2019-03-24T00:45:11.863Z,57.90
2019-03-24T00:47:44.100Z,62.88
2019-03-24T00:50:16.355Z,61.35
2019-03-24T00:52:48.630Z,60.00
2019-03-24T00:55:21.034Z,63.35
2019-03-24T00:57:53.256Z,64.05
2019-03-24T01:00:27.048Z,62.30
2019-03-24T01:02:59.308Z,63.98
2019-03-24T01:05:31.555Z,64.40
2019-03-24T01:08:03.893Z,66.95
2019-03-24T01:10:36.119Z,64.22
2019-03-24T01:13:08.371Z,65.50
2019-03-24T01:15:47.692Z,64.65
2019-03-24T01:18:14.642Z,63.83
2019-03-24T01:20:46.876Z,61.68
2019-03-24T01:23:19.150Z,62.98
2019-03-24T01:25:52.424Z,64.65
2019-03-24T01:28:24.697Z,56.05
2019-03-24T01:30:56.968Z,62.55
2019-03-24T01:33:29.189Z,63.75
2019-03-24T01:36:01.441Z,64.92
2019-03-24T01:38:33.679Z,57.08
2019-03-24T01:41:08.005Z,60.03
2019-03-24T01:43:39.883Z,64.17
2019-03-24T01:46:12.139Z,60.80
2019-03-24T01:48:44.366Z,63.25
2019-03-24T01:51:16.624Z,60.85
2019-03-24T01:53:48.920Z,62.15
2019-03-24T01:56:22.069Z,62.35
2019-03-24T01:58:54.300Z,63.85
2019-03-24T02:01:26.551Z,61.77
2019-03-24T02:03:58.788Z,56.68
2019-03-24T02:06:31.041Z,61.48
2019-03-24T02:09:05.722Z,61.48
2019-03-24T02:11:38.870Z,61.13
2019-03-24T02:14:11.098Z,63.60
2019-03-24T02:16:43.336Z,60.88
2019-03-24T02:19:15.575Z,65.87
2019-03-24T02:21:47.818Z,61.08
2019-03-24T02:24:20.114Z,62.98
2019-03-24T02:26:52.350Z,65.70
2019-03-24T02:29:24.602Z,58.52
2019-03-24T02:31:56.861Z,63.15
2019-03-24T02:34:29.107Z,60.10
2019-03-24T02:37:01.359Z,59.98
2019-03-24T02:39:33.595Z,66.85
2019-03-24T02:42:05.835Z,66.70
2019-03-24T02:44:38.102Z,71.97
2019-03-24T02:47:10.350Z,73.75
2019-03-24T02:49:42.575Z,64.40
2019-03-24T02:52:14.840Z,63.73
2019-03-24T02:54:47.076Z,64.80
2019-03-24T02:57:19.393Z,74.53
2019-03-24T02:59:51.747Z,70.08
2019-03-24T03:02:23.972Z,61.50
2019-03-24T03:04:56.227Z,67.27
2019-03-24T03:07:28.463Z,63.00
2019-03-24T03:10:00.703Z,69.62
2019-03-24T03:12:32.935Z,62.37
2019-03-24T03:15:06.730Z,65.80
2019-03-24T03:17:39.135Z,69.17
2019-03-24T03:20:11.454Z,64.12
2019-03-24T03:22:43.683Z,71.92
2019-03-24T03:25:15.926Z,63.65
2019-03-24T03:27:48.171Z,71.00
2019-03-24T03:30:20.480Z,64.58
2019-03-24T03:32:52.750Z,67.97
2019-03-24T03:35:25.041Z,69.07
2019-03-24T03:37:57.594Z,66.33
2019-03-24T03:40:29.835Z,66.97
2019-03-24T03:43:02.153Z,67.60
2019-03-24T03:45:34.404Z,68.90
2019-03-24T03:48:06.642Z,70.70
2019-03-24T03:50:38.880Z,69.50
2019-03-24T03:53:11.102Z,69.20
2019-03-24T03:55:43.344Z,68.60
2019-03-24T03:58:15.577Z,73.83
2019-03-24T04:00:47.836Z,72.37
2019-03-24T04:03:20.065Z,67.62
2019-03-24T04:05:52.304Z,78.00
2019-03-24T04:08:24.544Z,70.65
2019-03-24T04:10:56.816Z,75.05
2019-03-24T04:13:29.074Z,71.85
2019-03-24T04:16:01.312Z,73.72
2019-03-24T04:18:33.544Z,71.40
2019-03-24T04:21:05.790Z,70.75
2019-03-24T04:23:38.019Z,73.47
2019-03-24T04:26:10.256Z,67.37
2019-03-24T04:28:42.503Z,68.40
2019-03-24T04:31:14.746Z,73.25
2019-03-24T04:33:46.960Z,73.30
2019-03-24T04:36:19.447Z,72.82
2019-03-24T04:38:51.687Z,71.20
2019-03-24T04:41:23.936Z,72.35
2019-03-24T04:43:56.169Z,71.75
2019-03-24T04:46:28.402Z,65.92
2019-03-24T04:49:00.646Z,64.53
2019-03-24T04:51:32.911Z,71.82
2019-03-24T04:54:05.151Z,64.32
2019-03-24T04:56:37.407Z,71.15
2019-03-24T04:59:09.642Z,72.20
2019-03-24T05:01:41.916Z,72.92
2019-03-24T05:04:14.168Z,71.20
2019-03-24T05:06:46.420Z,74.53
2019-03-24T05:09:18.719Z,69.22
2019-03-24T05:11:50.958Z,70.22
2019-03-24T05:14:23.184Z,68.90
2019-03-24T05:16:55.422Z,65.67
2019-03-24T05:19:27.807Z,69.85
2019-03-24T05:22:00.056Z,73.92
2019-03-24T05:24:32.294Z,68.33
2019-03-24T05:27:04.543Z,71.12
2019-03-24T05:29:36.789Z,73.17
2019-03-24T05:32:09.058Z,73.50
2019-03-24T05:34:41.327Z,68.25
2019-03-24T05:37:13.591Z,73.47
2019-03-24T05:39:45.814Z,73.30
2019-03-24T05:42:18.080Z,77.42
2019-03-24T05:44:50.311Z,72.65
2019-03-24T05:47:22.563Z,68.05
2019-03-24T05:49:54.818Z,66.97
2019-03-24T05:52:27.743Z,69.50
2019-03-24T05:55:00.066Z,67.60
2019-03-24T05:57:32.307Z,69.07
2019-03-24T06:00:07.572Z,67.95
2019-03-24T06:02:39.839Z,68.22
2019-03-24T06:05:12.071Z,68.72
2019-03-24T06:07:44.319Z,70.92
2019-03-24T06:10:16.565Z,64.53
2019-03-24T06:12:48.831Z,64.10
2019-03-24T06:15:21.083Z,63.23
2019-03-24T06:17:53.350Z,64.82
2019-03-24T06:20:25.591Z,68.40
2019-03-24T06:22:57.839Z,75.00
2019-03-24T06:25:30.072Z,76.35
2019-03-24T06:28:02.350Z,69.27
2019-03-24T06:30:34.642Z,67.35
2019-03-24T06:33:06.975Z,70.25
2019-03-24T06:35:39.213Z,63.20
2019-03-24T06:38:11.503Z,65.35
2019-03-24T06:40:43.718Z,65.70
2019-03-24T06:43:15.972Z,63.00
2019-03-24T06:45:48.213Z,66.82
2019-03-24T06:48:20.453Z,66.75
2019-03-24T06:50:52.687Z,67.90
2019-03-24T06:53:24.927Z,71.50
2019-03-24T06:55:57.179Z,65.52
2019-03-24T06:58:29.424Z,66.82
2019-03-24T07:01:01.648Z,64.10
2019-03-24T07:03:33.940Z,66.90
2019-03-24T07:06:06.227Z,71.40
2019-03-24T07:08:38.466Z,68.60
2019-03-24T07:11:13.734Z,75.10
2019-03-24T07:13:44.724Z,68.47
2019-03-24T07:16:18.525Z,72.53
2019-03-24T07:18:50.921Z,71.20
2019-03-24T07:21:23.148Z,64.80
2019-03-24T07:23:55.399Z,72.35
2019-03-24T07:26:27.939Z,70.97
2019-03-24T07:29:00.192Z,70.50
2019-03-24T07:31:32.432Z,70.50
2019-03-24T07:34:04.684Z,65.97
2019-03-24T07:36:36.912Z,69.77
2019-03-24T07:39:09.172Z,67.17
2019-03-24T07:41:41.400Z,63.45
2019-03-24T07:44:13.654Z,69.42
2019-03-24T07:46:45.893Z,68.28
2019-03-24T07:49:18.147Z,70.42
2019-03-24T07:51:50.378Z,65.72
2019-03-24T07:54:22.722Z,68.65
2019-03-24T07:56:54.962Z,71.60
2019-03-24T07:59:27.215Z,65.05
2019-03-24T08:01:59.435Z,66.57
2019-03-24T08:04:31.679Z,66.15
2019-03-24T08:07:03.914Z,67.78
2019-03-24T08:09:37.259Z,62.88
2019-03-24T08:12:09.569Z,72.22
2019-03-24T08:14:41.825Z,74.30
2019-03-24T08:17:14.071Z,69.77
2019-03-24T08:19:46.308Z,64.20
2019-03-24T08:22:18.572Z,71.05
2019-03-24T08:24:50.837Z,64.20
2019-03-24T08:27:23.068Z,74.53
2019-03-24T08:29:55.312Z,66.15
2019-03-24T08:32:27.991Z,72.80
2019-03-24T08:35:00.365Z,72.80
2019-03-24T08:37:32.644Z,69.12
2019-03-24T08:40:06.185Z,67.72
2019-03-24T08:42:38.482Z,61.35
2019-03-24T08:45:12.266Z,66.55
2019-03-24T08:47:44.512Z,64.22
2019-03-24T08:50:16.743Z,70.97
2019-03-24T08:52:49.003Z,71.62
2019-03-24T08:55:21.498Z,68.72
2019-03-24T08:57:53.770Z,66.00
2019-03-24T09:00:30.719Z,65.75
2019-03-24T09:02:59.966Z,71.12
2019-03-24T09:05:33.699Z,64.97
2019-03-24T09:08:06.116Z,70.22
2019-03-24T09:10:38.371Z,66.95
2019-03-24T09:13:10.606Z,71.15
2019-03-24T09:15:43.275Z,66.87
2019-03-24T09:18:15.592Z,71.53
2019-03-24T09:20:47.838Z,61.65
2019-03-24T09:23:20.484Z,65.35
2019-03-24T09:25:52.779Z,60.88
2019-03-24T09:28:25.062Z,57.67
2019-03-24T09:30:58.226Z,54.27
2019-03-24T09:33:30.707Z,49.53
2019-03-24T09:36:02.943Z,57.15
2019-03-24T09:38:35.275Z,54.00
2019-03-24T09:41:07.498Z,57.25
2019-03-24T09:43:39.838Z,50.65
2019-03-24T09:46:12.055Z,57.62
2019-03-24T09:48:44.302Z,53.95
2019-03-24T09:51:16.534Z,51.95
2019-03-24T09:53:49.089Z,49.05
2019-03-24T09:56:21.308Z,47.17
2019-03-24T09:58:53.643Z,48.65
2019-03-24T10:01:25.903Z,48.58
2019-03-24T10:03:58.214Z,43.60
2019-03-24T10:06:30.452Z,50.50
2019-03-24T10:09:02.762Z,53.35
2019-03-24T10:11:34.993Z,52.25
2019-03-24T10:14:07.233Z,56.13
2019-03-24T10:16:39.458Z,55.43
2019-03-24T10:19:14.339Z,54.23
2019-03-24T10:21:45.650Z,47.58
2019-03-24T10:24:17.920Z,48.65
2019-03-24T10:26:50.294Z,53.10
2019-03-24T10:29:22.566Z,49.27
2019-03-24T10:31:54.798Z,67.97
2019-03-24T10:34:27.038Z,56.88
2019-03-24T10:36:59.270Z,52.75
2019-03-24T10:39:32.116Z,71.67
2019-03-24T10:42:04.422Z,79.40
2019-03-24T10:44:36.679Z,102.07
2019-03-24T10:47:08.958Z,59.00
2019-03-24T10:49:41.259Z,58.05
2019-03-24T10:52:13.607Z,51.42
2019-03-24T10:54:45.849Z,66.17
2019-03-24T10:57:18.104Z,55.85
2019-03-24T10:59:50.510Z,64.72
2019-03-24T11:02:23.308Z,90.60
2019-03-24T11:04:55.562Z,77.60
2019-03-24T11:07:28.160Z,95.85
2019-03-24T11:10:00.422Z,56.00
2019-03-24T11:12:32.708Z,62.93
2019-03-24T11:15:06.449Z,52.17
2019-03-24T11:17:38.759Z,112.50
2019-03-24T11:20:11.662Z,130.30
2019-03-24T11:22:43.883Z,89.95
2019-03-24T11:25:16.128Z,47.35
2019-03-24T11:27:48.386Z,54.18
2019-03-24T11:30:20.676Z,66.55
2019-03-24T11:32:54.017Z,49.35
2019-03-24T11:35:26.267Z,47.15
2019-03-24T11:37:58.503Z,41.65
2019-03-24T11:40:30.757Z,63.65
2019-03-24T11:43:03.001Z,54.60
2019-03-24T11:45:35.233Z,55.25
2019-03-24T11:48:07.546Z,41.75
2019-03-24T11:50:40.943Z,42.90
2019-03-24T11:53:13.174Z,47.45
2019-03-24T11:55:45.427Z,44.43
2019-03-24T11:58:19.684Z,43.20
2019-03-24T12:00:51.947Z,51.42
2019-03-24T12:03:25.381Z,41.75
2019-03-24T12:05:57.962Z,48.80
2019-03-24T12:08:30.191Z,45.10
2019-03-24T12:11:02.422Z,43.92
2019-03-24T12:13:34.652Z,41.53
2019-03-24T12:16:07.157Z,51.77
2019-03-24T12:18:39.566Z,55.00
2019-03-24T12:21:11.844Z,53.65
2019-03-24T12:23:44.069Z,38.67
2019-03-24T12:26:16.342Z,43.58
2019-03-24T12:28:48.562Z,44.15
2019-03-24T12:31:20.820Z,46.85
2019-03-24T12:33:53.052Z,50.35
2019-03-24T12:36:25.301Z,42.17
2019-03-24T12:38:57.534Z,50.45
2019-03-24T12:41:29.793Z,37.98
2019-03-24T12:44:02.403Z,38.05
2019-03-24T12:46:34.652Z,42.58
2019-03-24T12:49:06.899Z,39.75
2019-03-24T12:51:39.148Z,36.03
2019-03-24T12:54:11.474Z,38.90
2019-03-24T12:56:43.828Z,38.88
2019-03-24T12:59:16.062Z,42.45
2019-03-24T13:01:48.306Z,35.70
2019-03-24T13:04:20.550Z,38.60
2019-03-24T13:06:53.024Z,32.25
2019-03-24T13:09:25.408Z,27.30
2019-03-24T13:11:57.678Z,30.88
2019-03-24T13:14:30.795Z,26.82
2019-03-24T13:17:03.507Z,21.60
2019-03-24T13:19:36.275Z,27.65
2019-03-24T13:22:08.615Z,25.80
2019-03-24T13:24:40.860Z,22.07
2019-03-24T13:27:13.148Z,25.27
2019-03-24T13:29:45.417Z,18.17
2019-03-24T13:32:17.727Z,22.77
2019-03-24T13:34:49.958Z,22.70
2019-03-24T13:37:22.193Z,16.73
2019-03-24T13:39:54.610Z,14.03
2019-03-24T13:42:26.894Z,16.12
2019-03-24T13:44:59.940Z,17.57
2019-03-24T13:47:32.523Z,18.70
2019-03-24T13:50:05.329Z,21.23
2019-03-24T13:52:37.596Z,18.00
2019-03-24T13:55:09.831Z,19.42
2019-03-24T13:57:42.149Z,14.75
2019-03-24T14:00:16.087Z,23.87
2019-03-24T14:02:48.335Z,18.07
2019-03-24T14:05:20.555Z,17.57
2019-03-24T14:07:52.904Z,21.77
2019-03-24T14:10:25.151Z,21.33
2019-03-24T14:12:57.403Z,18.80
2019-03-24T14:15:29.703Z,16.67
2019-03-24T14:18:02.159Z,34.20
2019-03-24T14:20:43.373Z,19.62
2019-03-24T14:23:08.522Z,13.40
2019-03-24T14:25:40.829Z,14.40
2019-03-24T14:28:13.067Z,12.63
2019-03-24T14:30:46.087Z,14.75
2019-03-24T14:33:18.358Z,11.18
2019-03-24T14:35:50.592Z,10.00
2019-03-24T14:38:23.264Z,10.45
2019-03-24T14:40:55.579Z,12.00
2019-03-24T14:43:28.402Z,18.42
2019-03-24T14:46:00.637Z,14.53
2019-03-24T14:48:32.875Z,15.78
2019-03-24T14:51:05.113Z,12.33
2019-03-24T14:53:37.428Z,71.12
2019-03-24T14:56:09.735Z,22.75
2019-03-24T14:58:41.979Z,20.10
2019-03-24T15:01:14.206Z,17.05
2019-03-24T15:03:46.436Z,22.98
2019-03-24T15:06:18.692Z,14.98
2019-03-24T15:08:50.976Z,15.93
2019-03-24T15:11:23.216Z,13.18
2019-03-24T15:13:55.458Z,12.70
2019-03-24T15:19:11.301Z,12.03
2019-03-24T15:21:43.523Z,13.90
2019-03-24T15:24:15.847Z,9.70
2019-03-24T15:26:48.371Z,13.60
2019-03-24T15:29:20.661Z,10.15
2019-03-24T15:31:52.891Z,11.30
2019-03-24T15:34:25.194Z,11.88
2019-03-24T15:36:57.438Z,9.98
2019-03-24T15:39:29.874Z,11.95
2019-03-24T15:42:02.217Z,14.80
2019-03-24T15:47:49.427Z,11.60
2019-03-24T15:50:21.708Z,9.53
2019-03-24T15:52:53.952Z,12.50
2019-03-24T15:55:26.201Z,11.63
2019-03-24T15:57:58.453Z,10.55
2019-03-24T16:00:40.613Z,12.23
2019-03-24T16:03:12.980Z,18.95
2019-03-24T16:05:45.211Z,10.30
2019-03-24T16:08:17.721Z,10.58
2019-03-24T16:10:50.248Z,13.50
2019-03-24T16:13:22.755Z,9.48
2019-03-24T16:15:54.992Z,13.95
2019-03-24T16:18:27.223Z,11.10
2019-03-24T16:20:59.503Z,11.50
2019-03-24T16:23:32.209Z,8.43
2019-03-24T16:26:04.632Z,10.48
2019-03-24T16:28:36.840Z,8.73
2019-03-24T16:31:09.112Z,14.90
2019-03-24T16:33:41.435Z,10.97
2019-03-24T16:36:13.791Z,11.33
2019-03-24T16:38:49.088Z,12.03
2019-03-24T16:41:20.071Z,14.38
2019-03-24T16:43:52.331Z,10.75
2019-03-24T16:46:24.747Z,7.35
2019-03-24T16:48:57.064Z,9.18
2019-03-24T16:51:38.237Z,9.88
2019-03-24T16:54:03.330Z,10.35
2019-03-24T16:56:35.600Z,10.95
2019-03-24T16:59:07.897Z,8.23
2019-03-24T17:01:40.106Z,9.73
2019-03-24T17:04:12.324Z,7.42
2019-03-24T17:06:44.588Z,7.75
2019-03-24T17:09:16.823Z,9.25
2019-03-24T17:11:49.055Z,10.58
2019-03-24T17:14:21.288Z,11.97
2019-03-24T17:16:53.520Z,7.87
2019-03-24T17:19:25.808Z,8.38
2019-03-24T17:21:58.114Z,6.62
2019-03-24T17:24:30.384Z,8.40
2019-03-24T17:27:02.751Z,8.53
2019-03-24T17:29:35.072Z,9.93
2019-03-24T17:32:07.431Z,10.70
2019-03-24T17:34:39.759Z,10.48
2019-03-24T17:37:11.986Z,10.72
2019-03-24T17:39:44.215Z,10.43
2019-03-24T17:42:16.471Z,12.03
2019-03-24T17:44:48.791Z,10.03
2019-03-24T17:47:22.082Z,6.87
2019-03-24T17:49:54.345Z,11.80
2019-03-24T17:52:26.843Z,7.62
2019-03-24T17:54:59.135Z,8.70
2019-03-24T17:57:31.707Z,11.48
2019-03-24T18:00:08.235Z,7.47
2019-03-24T18:02:40.470Z,9.25
2019-03-24T18:05:13.485Z,9.50
2019-03-24T18:07:45.811Z,10.45
2019-03-24T18:10:18.096Z,9.35
2019-03-24T18:12:50.374Z,7.15
2019-03-24T18:15:22.608Z,8.28
2019-03-24T18:17:54.867Z,4.12
2019-03-24T18:20:34.682Z,6.92
2019-03-24T18:23:06.934Z,12.27
2019-03-24T18:25:39.227Z,6.00
2019-03-24T18:28:11.469Z,7.67
2019-03-24T18:30:43.703Z,6.55
2019-03-24T18:33:15.972Z,8.18
2019-03-24T18:35:48.206Z,8.73
2019-03-24T18:38:20.492Z,5.45
2019-03-24T18:40:52.704Z,4.40
2019-03-24T18:43:24.946Z,8.95
2019-03-24T18:45:57.621Z,8.73
2019-03-24T18:48:29.873Z,7.65
2019-03-24T18:51:03.029Z,7.72
2019-03-24T18:53:35.296Z,7.45
2019-03-24T18:56:09.023Z,11.33
2019-03-24T18:58:41.896Z,9.03
2019-03-24T19:01:14.299Z,10.82
2019-03-24T19:03:46.548Z,7.30
2019-03-24T19:06:18.947Z,13.70
2019-03-24T19:08:52.218Z,6.78
2019-03-24T19:11:24.450Z,16.00
2019-03-24T19:13:56.943Z,6.12
2019-03-24T19:16:29.466Z,8.60
2019-03-24T19:19:01.724Z,11.15
2019-03-24T19:21:33.959Z,10.20
2019-03-24T19:24:06.424Z,11.75
2019-03-24T19:26:38.654Z,8.80
2019-03-24T19:29:10.925Z,78.62
2019-03-24T19:31:43.272Z,18.05
2019-03-24T19:34:15.528Z,23.98
2019-03-24T19:36:48.136Z,26.00
2019-03-24T19:39:21.773Z,19.90
2019-03-24T19:41:54.032Z,7.85
2019-03-24T19:44:26.283Z,9.88
2019-03-24T19:46:59.183Z,10.65
2019-03-24T19:49:31.454Z,10.30
2019-03-24T19:52:03.688Z,10.58
2019-03-24T19:54:35.922Z,8.13
2019-03-24T19:57:08.172Z,8.95
2019-03-24T19:59:40.552Z,10.70
2019-03-24T20:02:12.827Z,14.43
2019-03-24T20:04:45.054Z,11.78
2019-03-24T20:07:17.318Z,46.37
2019-03-24T20:09:49.554Z,24.82
2019-03-24T20:12:21.798Z,28.00
2019-03-24T20:14:54.050Z,41.40
2019-03-24T20:17:26.298Z,23.57
2019-03-24T20:19:58.586Z,7.55
2019-03-24T20:22:30.908Z,6.53
2019-03-24T20:25:03.908Z,8.10
2019-03-24T20:27:36.161Z,9.40
2019-03-24T20:30:11.601Z,10.30
2019-03-24T20:32:43.914Z,9.43
2019-03-24T20:35:16.134Z,11.57
2019-03-24T20:37:48.437Z,9.98
2019-03-24T20:40:20.691Z,10.23
2019-03-24T20:42:52.951Z,9.90
2019-03-24T20:45:25.167Z,8.83
2019-03-24T20:47:57.419Z,8.30
2019-03-24T20:50:29.644Z,8.18
2019-03-24T20:53:05.637Z,9.43
2019-03-24T20:55:35.848Z,7.92
2019-03-24T20:58:08.088Z,7.35
2019-03-24T21:00:40.311Z,10.08
2019-03-24T21:03:12.554Z,11.28
2019-03-24T21:05:44.815Z,11.93
2019-03-24T21:08:17.159Z,12.85
2019-03-24T21:10:49.404Z,14.20
2019-03-24T21:13:21.653Z,10.80
2019-03-24T21:15:53.874Z,11.83
2019-03-24T21:18:26.122Z,10.63
2019-03-24T21:20:58.363Z,7.95
2019-03-24T21:23:30.599Z,9.13
2019-03-24T21:26:02.891Z,8.35
2019-03-24T21:28:35.124Z,9.43
2019-03-24T21:31:07.396Z,10.45
2019-03-24T21:33:39.638Z,9.78
2019-03-24T21:36:11.923Z,11.78
2019-03-24T21:38:44.198Z,7.22
2019-03-24T21:41:16.418Z,9.00
2019-03-24T21:43:48.647Z,7.20
2019-03-24T21:46:20.884Z,10.65
2019-03-24T21:48:53.144Z,7.90
2019-03-24T21:51:25.367Z,8.93
2019-03-24T21:53:57.603Z,8.25
2019-03-24T21:56:29.824Z,14.53
2019-03-24T21:59:02.067Z,11.78
2019-03-24T22:01:34.374Z,9.50
2019-03-24T22:04:06.616Z,11.70
2019-03-24T22:06:38.844Z,22.77
2019-03-24T22:09:11.090Z,136.72
2019-03-24T22:11:43.337Z,15.30
2019-03-24T22:14:15.714Z,9.45
2019-03-24T22:16:48.023Z,12.95
2019-03-24T22:19:20.292Z,11.95
2019-03-24T22:21:52.512Z,15.58
2019-03-24T22:24:24.743Z,23.50
2019-03-24T22:26:57.176Z,17.50
2019-03-24T22:29:29.414Z,11.33
2019-03-24T22:32:01.654Z,10.28
2019-03-24T22:34:33.929Z,10.32
2019-03-24T22:37:15.431Z,10.53
2019-03-24T22:39:40.149Z,7.75
2019-03-24T22:42:12.411Z,7.12
2019-03-24T22:44:44.662Z,10.85
2019-03-24T22:47:16.904Z,12.10
2019-03-24T22:49:49.154Z,10.63
2019-03-24T22:52:21.381Z,11.80
2019-03-24T22:54:53.626Z,11.45
2019-03-24T22:57:25.845Z,12.82
2019-03-24T22:59:58.100Z,8.13
2019-03-24T23:02:30.343Z,10.58
2019-03-24T23:05:02.576Z,11.20
2019-03-24T23:07:34.962Z,9.55
2019-03-24T23:10:08.140Z,9.30
2019-03-24T23:12:40.365Z,10.88
2019-03-24T23:15:12.595Z,11.60
2019-03-24T23:17:44.925Z,11.60
2019-03-24T23:20:17.139Z,11.63
2019-03-24T23:22:49.382Z,12.58
2019-03-24T23:25:21.595Z,9.95
2019-03-24T23:27:53.840Z,13.88
2019-03-24T23:30:26.082Z,16.77
2019-03-24T23:32:58.311Z,11.03
2019-03-24T23:35:30.581Z,10.40
2019-03-24T23:38:02.812Z,11.88
2019-03-24T23:40:35.713Z,16.32
2019-03-24T23:43:07.958Z,14.00
2019-03-24T23:45:40.192Z,11.93
2019-03-24T23:48:12.439Z,11.28
2019-03-24T23:50:44.688Z,10.28
2019-03-24T23:53:16.933Z,11.53
2019-03-24T23:55:49.167Z,14.18
2019-03-24T23:58:21.401Z,10.53
